Time;durP1;ratioP1;P1;durP2;ratioP2;P2;SDS_P1;SDS_P2;PMS_P1;PMS_P2;Temp;Humidity;BMP_temperature;BMP_pressure;BME280_temperature;BME280_humidity;BME280_pressure;Samples;Min_cycle;Max_cycle;Signal;HPM_P1;HPM_P2
2022/12/18 00:01:55;;;;;;;18.90;12.30;;;-3.90;99.90;;;;;;5075603;28;20432;-71
2022/12/18 00:04:24;;;;;;;17.00;11.77;;;-3.80;99.90;;;;;;5075060;28;20416;-70
2022/12/18 00:06:50;;;;;;;20.45;11.55;;;-3.80;99.90;;;;;;5075618;28;20189;-71
2022/12/18 00:09:16;;;;;;;16.77;11.97;;;-3.90;99.90;;;;;;5075667;28;20198;-71
2022/12/18 00:11:42;;;;;;;13.45;10.30;;;-3.90;99.90;;;;;;5075526;28;20253;-71
2022/12/18 00:14:10;;;;;;;18.47;11.73;;;-3.90;99.90;;;;;;5075262;28;20301;-71
2022/12/18 00:16:36;;;;;;;17.13;10.75;;;-4.00;99.90;;;;;;5074894;28;20170;-70
2022/12/18 00:19:03;;;;;;;20.80;12.07;;;-4.00;99.90;;;;;;5075537;28;20162;-71
2022/12/18 00:21:30;;;;;;;21.73;12.73;;;-4.10;99.90;;;;;;5075533;28;20615;-70
2022/12/18 00:23:57;;;;;;;20.92;12.77;;;-4.10;99.90;;;;;;5075363;28;20190;-71
2022/12/18 00:26:25;;;;;;;20.75;12.15;;;-4.10;99.90;;;;;;5074597;28;20173;-70
2022/12/18 00:28:52;;;;;;;15.00;11.32;;;-4.10;99.90;;;;;;5075211;28;20788;-71
2022/12/18 00:31:21;;;;;;;17.30;11.25;;;-4.10;99.90;;;;;;5057318;28;20170;-70
2022/12/18 00:33:47;;;;;;;18.33;12.10;;;-4.00;99.90;;;;;;5075245;28;20212;-72
2022/12/18 00:36:22;;;;;;;24.65;12.02;;;-4.00;99.90;;;;;;5074250;28;20169;-70
2022/12/18 00:38:48;;;;;;;20.40;11.25;;;-4.00;99.90;;;;;;5075102;28;20197;-71
2022/12/18 00:42:55;;;;;;;16.50;11.93;;;-4.00;99.90;;;;;;5074991;28;20170;-71
2022/12/18 00:44:03;;;;;;;16.58;12.43;;;-4.00;99.90;;;;;;5073412;28;20709;-72
2022/12/18 00:46:28;;;;;;;22.98;11.82;;;-4.00;99.90;;;;;;5074123;28;20174;-70
2022/12/18 00:48:54;;;;;;;14.33;10.80;;;-4.10;99.90;;;;;;5074815;28;20198;-71
2022/12/18 00:51:20;;;;;;;16.67;12.00;;;-4.00;99.90;;;;;;5074729;28;20245;-70
2022/12/18 00:53:46;;;;;;;19.67;12.00;;;-4.10;99.90;;;;;;5074689;28;20169;-70
2022/12/18 00:56:12;;;;;;;12.97;9.70;;;-4.10;99.90;;;;;;5073707;28;20689;-70
2022/12/18 00:58:37;;;;;;;13.68;10.70;;;-4.10;99.90;;;;;;5074653;28;20171;-71
2022/12/18 01:01:07;;;;;;;10.40;8.60;;;-4.10;99.90;;;;;;5074629;28;20162;-71
2022/12/18 01:03:33;;;;;;;12.75;10.35;;;-4.20;99.90;;;;;;5074447;28;20166;-71
2022/12/18 01:05:59;;;;;;;19.55;10.45;;;-4.20;99.90;;;;;;5055524;28;20185;-71
2022/12/18 01:08:25;;;;;;;14.83;11.23;;;-4.20;99.90;;;;;;5056421;28;20194;-71
2022/12/18 01:10:51;;;;;;;22.23;10.77;;;-4.20;99.90;;;;;;5074591;28;20237;-71
2022/12/18 01:13:16;;;;;;;21.08;12.02;;;-4.20;99.90;;;;;;5074260;28;20462;-70
2022/12/18 01:15:51;;;;;;;14.50;11.07;;;-4.30;99.90;;;;;;5073475;28;20195;-71
2022/12/18 01:18:17;;;;;;;12.10;10.10;;;-4.20;99.90;;;;;;5074318;28;20392;-70
2022/12/18 01:20:44;;;;;;;14.40;10.35;;;-4.30;99.90;;;;;;5074178;28;20176;-70
2022/12/18 01:23:09;;;;;;;14.38;10.38;;;-4.20;99.90;;;;;;5074202;28;20181;-70
2022/12/18 01:25:38;;;;;;;19.20;12.30;;;-4.30;99.90;;;;;;5055573;28;20202;-70
2022/12/18 01:28:05;;;;;;;16.80;11.48;;;-4.30;99.90;;;;;;5074040;28;20201;-70
2022/12/18 01:30:31;;;;;;;16.50;11.48;;;-4.30;99.90;;;;;;5073991;28;20171;-72
2022/12/18 01:32:57;;;;;;;14.23;9.30;;;-4.30;99.90;;;;;;5074137;28;20245;-70
2022/12/18 01:35:23;;;;;;;15.00;10.53;;;-4.30;99.90;;;;;;5072959;28;20634;-71
2022/12/18 01:37:49;;;;;;;22.47;12.30;;;-4.30;99.90;;;;;;5055979;28;20401;-70
2022/12/18 01:40:14;;;;;;;16.73;11.90;;;-4.30;99.90;;;;;;5055770;28;20562;-71
2022/12/18 01:42:40;;;;;;;14.20;11.60;;;-4.30;99.90;;;;;;5073652;28;20175;-70
2022/12/18 01:45:28;;;;;;;17.33;11.00;;;-4.40;99.90;;;;;;5072999;28;20420;-71
2022/12/18 01:47:56;;;;;;;17.85;12.38;;;-4.40;99.90;;;;;;5073585;28;20397;-68
2022/12/18 01:50:26;;;;;;;15.00;12.90;;;-4.40;99.90;;;;;;5073714;28;20645;-68
2022/12/18 01:53:03;;;;;;;14.30;10.30;;;-4.40;99.90;;;;;;5073656;28;20162;-68
2022/12/18 01:55:37;;;;;;;15.55;10.00;;;-4.40;99.90;;;;;;5072609;28;20196;-70
2022/12/18 01:58:04;;;;;;;11.02;9.27;;;-4.30;99.90;;;;;;5055690;28;20248;-69
2022/12/18 02:00:30;;;;;;;17.60;12.70;;;-4.30;99.90;;;;;;5073545;28;20561;-71
2022/12/18 02:02:56;;;;;;;11.48;10.35;;;-4.30;99.90;;;;;;5055552;28;20180;-71
2022/12/18 02:05:51;;;;;;;16.15;11.02;;;-4.30;99.90;;;;;;5072506;28;20284;-70
2022/12/18 02:08:23;;;;;;;17.70;10.50;;;-4.40;99.90;;;;;;5073474;28;20194;-70
2022/12/18 02:11:04;;;;;;;15.75;11.45;;;-4.40;99.90;;;;;;5073339;28;20550;-70
2022/12/18 02:13:42;;;;;;;12.88;9.98;;;-4.40;99.90;;;;;;5073491;28;20237;-70
2022/12/18 02:16:50;;;;;;;15.10;10.45;;;-4.30;99.90;;;;;;5054937;28;20228;-70
2022/12/18 02:19:40;;;;;;;16.20;10.50;;;-4.30;99.90;;;;;;5073553;28;20176;-70
2022/12/18 02:22:21;;;;;;;14.80;10.35;;;-4.30;99.90;;;;;;5055736;28;20586;-70
2022/12/18 02:25:17;;;;;;;13.63;10.63;;;-4.30;99.90;;;;;;5072288;28;20190;-70
2022/12/18 02:27:46;;;;;;;17.13;9.65;;;-4.30;99.90;;;;;;5073544;28;20194;-71
2022/12/18 02:30:13;;;;;;;12.75;10.23;;;-4.30;99.90;;;;;;5073442;28;20162;-70
2022/12/18 02:32:46;;;;;;;21.35;11.27;;;-4.20;99.90;;;;;;5073387;28;20169;-71
2022/12/18 02:35:20;;;;;;;13.15;11.52;;;-4.30;99.90;;;;;;5054541;28;20237;-71
2022/12/18 02:37:47;;;;;;;12.18;10.00;;;-4.30;99.90;;;;;;5073247;28;20167;-70
2022/12/18 02:40:15;;;;;;;17.38;12.40;;;-4.30;99.90;;;;;;5055469;28;20570;-70
2022/12/18 02:42:41;;;;;;;11.98;9.90;;;-4.30;99.90;;;;;;5073237;28;20241;-70
2022/12/18 02:45:07;;;;;;;12.07;10.73;;;-4.30;99.90;;;;;;5072043;28;20297;-70
2022/12/18 02:47:39;;;;;;;11.85;10.45;;;-4.40;99.90;;;;;;5055186;28;20176;-70
2022/12/18 02:50:20;;;;;;;20.98;10.10;;;-4.40;99.90;;;;;;5073167;28;20174;-70
2022/12/18 02:53:16;;;;;;;14.05;10.85;;;-4.30;99.90;;;;;;5055095;28;20202;-70
2022/12/18 02:56:11;;;;;;;12.40;8.85;;;-4.40;99.90;;;;;;5072121;28;20262;-70
2022/12/18 02:59:01;;;;;;;11.02;9.13;;;-4.40;99.90;;;;;;5072988;28;20173;-70
2022/12/18 03:01:56;;;;;;;19.48;9.63;;;-4.40;99.90;;;;;;5055251;28;20299;-70
2022/12/18 03:04:30;;;;;;;14.35;10.50;;;-4.30;99.90;;;;;;5072132;28;20194;-70
2022/12/18 03:06:58;;;;;;;11.68;10.05;;;-4.30;99.90;;;;;;5072735;28;20221;-71
2022/12/18 03:09:38;;;;;;;15.75;11.48;;;-4.30;99.90;;;;;;5076611;28;20186;-71
2022/12/18 03:12:35;;;;;;;21.80;12.02;;;-4.30;99.90;;;;;;5076916;28;20215;-70
2022/12/18 03:15:04;;;;;;;13.60;10.15;;;-4.30;99.90;;;;;;5057686;28;20662;-70
2022/12/18 03:17:32;;;;;;;12.43;11.05;;;-4.30;99.90;;;;;;5076511;28;20177;-70
2022/12/18 03:20:06;;;;;;;11.18;8.65;;;-4.30;99.90;;;;;;5076805;28;20249;-70
2022/12/18 03:22:35;;;;;;;11.75;8.18;;;-4.30;99.90;;;;;;5076514;28;20565;-70
2022/12/18 03:25:05;;;;;;;11.48;9.13;;;-4.30;99.90;;;;;;5075558;28;20289;-70
2022/12/18 03:27:33;;;;;;;16.05;10.32;;;-4.30;99.90;;;;;;5076466;28;20178;-71
2022/12/18 03:30:07;;;;;;;13.13;10.18;;;-4.30;99.90;;;;;;5076212;28;20201;-71
2022/12/18 03:32:44;;;;;;;19.67;10.02;;;-4.30;99.90;;;;;;5076391;28;20565;-70
2022/12/18 03:35:17;;;;;;;18.00;8.35;;;-4.30;99.90;;;;;;5075379;28;20182;-70
2022/12/18 03:37:43;;;;;;;9.70;8.68;;;-4.30;99.90;;;;;;5076344;28;20162;-70
2022/12/18 03:40:09;;;;;;;9.98;9.00;;;-4.40;99.90;;;;;;5076378;28;20304;-70
2022/12/18 03:43:25;;;;;;;16.80;11.23;;;-4.30;99.90;;;;;;5076185;28;20249;-70
2022/12/18 03:46:04;;;;;;;18.35;9.80;;;-4.30;99.90;;;;;;5071318;28;20206;-70
2022/12/18 03:48:39;;;;;;;10.45;8.50;;;-4.20;99.90;;;;;;5076073;28;20247;-70
2022/12/18 03:51:18;;;;;;;13.05;9.40;;;-4.30;99.90;;;;;;5076024;28;20235;-70
2022/12/18 03:54:00;;;;;;;17.45;9.13;;;-4.40;99.90;;;;;;5075879;28;20245;-71
2022/12/18 03:56:30;;;;;;;15.07;9.52;;;-4.40;99.90;;;;;;5057535;28;20201;-70
2022/12/18 03:58:58;;;;;;;13.98;8.93;;;-4.40;99.90;;;;;;5075923;28;20162;-71
2022/12/18 04:01:33;;;;;;;15.07;9.85;;;-4.40;99.90;;;;;;5075878;28;20631;-72
2022/12/18 04:04:04;;;;;;;16.83;10.40;;;-4.40;99.90;;;;;;5075627;28;20193;-71
2022/12/18 04:06:30;;;;;;;12.57;9.60;;;-4.40;99.90;;;;;;5074921;28;20174;-70
2022/12/18 04:08:58;;;;;;;13.00;9.30;;;-4.40;99.90;;;;;;5075664;28;20186;-70
2022/12/18 04:11:25;;;;;;;14.80;9.73;;;-4.50;99.90;;;;;;5075690;28;20166;-70
2022/12/18 04:13:55;;;;;;;20.27;11.30;;;-4.50;99.90;;;;;;5075467;28;20190;-70
2022/12/18 04:16:20;;;;;;;11.73;9.52;;;-4.40;99.90;;;;;;5074586;28;20530;-70
2022/12/18 04:18:46;;;;;;;14.63;10.10;;;-4.40;99.90;;;;;;5074549;28;20178;-71
2022/12/18 04:21:12;;;;;;;14.37;9.50;;;-4.40;99.90;;;;;;5057650;28;20919;-70
2022/12/18 04:23:38;;;;;;;14.07;9.57;;;-4.40;99.90;;;;;;5075482;28;20491;-70
2022/12/18 04:26:04;;;;;;;9.10;8.17;;;-4.40;99.90;;;;;;5074432;28;20253;-71
2022/12/18 04:28:50;;;;;;;13.30;10.37;;;-4.40;99.90;;;;;;5075428;28;20444;-70
2022/12/18 04:31:21;;;;;;;13.63;9.77;;;-4.40;99.90;;;;;;5074913;28;20443;-70
2022/12/18 04:37:15;;;;;;;15.70;10.55;;;-4.40;99.90;;;;;;5014658;28;20179;-69
2022/12/18 04:39:41;;;;;;;11.75;9.18;;;-4.40;99.90;;;;;;5013566;28;20172;-70
2022/12/18 04:42:10;;;;;;;13.33;9.60;;;-4.40;99.90;;;;;;5044990;28;20197;-70
2022/12/18 04:44:36;;;;;;;18.50;10.48;;;-4.40;99.90;;;;;;5074162;28;20190;-70
2022/12/18 04:47:02;;;;;;;15.00;9.73;;;-4.40;99.90;;;;;;5057059;28;20166;-70
2022/12/18 04:49:28;;;;;;;11.68;9.20;;;-4.30;99.90;;;;;;5074950;28;20194;-70
2022/12/18 04:51:54;;;;;;;14.13;9.83;;;-4.40;99.90;;;;;;5074953;28;20174;-72
2022/12/18 04:54:20;;;;;;;17.47;9.60;;;-4.50;99.90;;;;;;5073822;28;20217;-71
2022/12/18 04:56:46;;;;;;;17.67;12.02;;;-4.40;99.90;;;;;;5074772;28;20489;-70
2022/12/18 04:59:11;;;;;;;12.13;8.30;;;-4.40;99.90;;;;;;5074710;28;20249;-70
2022/12/18 05:01:37;;;;;;;12.83;10.23;;;-4.40;99.90;;;;;;5074627;28;20629;-70
2022/12/18 05:04:03;;;;;;;16.57;11.80;;;-4.50;99.90;;;;;;5056365;28;20952;-70
2022/12/18 05:06:29;;;;;;;9.15;8.32;;;-4.50;99.90;;;;;;5073646;28;20192;-70
2022/12/18 05:08:55;;;;;;;11.67;9.70;;;-4.50;99.90;;;;;;5074533;28;20543;-70
2022/12/18 05:11:24;;;;;;;14.07;9.00;;;-4.50;99.90;;;;;;5074496;28;20401;-70
2022/12/18 05:13:50;;;;;;;17.92;10.85;;;-4.50;99.90;;;;;;5074408;28;20416;-69
2022/12/18 05:16:16;;;;;;;12.77;9.50;;;-4.50;99.90;;;;;;5073158;28;20166;-70
2022/12/18 05:18:42;;;;;;;14.30;10.87;;;-4.50;99.90;;;;;;5074302;28;20436;-70
2022/12/18 05:21:08;;;;;;;13.10;9.50;;;-4.50;99.90;;;;;;5074355;28;20658;-70
2022/12/18 05:23:34;;;;;;;10.93;9.70;;;-4.60;99.90;;;;;;5074251;28;20180;-70
2022/12/18 05:26:03;;;;;;;13.57;10.80;;;-4.60;99.90;;;;;;5055453;28;20820;-70
2022/12/18 05:28:34;;;;;;;11.15;8.35;;;-4.70;99.90;;;;;;5074124;28;20193;-70
2022/12/18 05:31:02;;;;;;;9.95;8.93;;;-4.70;99.90;;;;;;5074038;28;20641;-70
2022/12/18 05:33:30;;;;;;;10.73;8.57;;;-4.70;99.90;;;;;;5074063;28;20185;-71
2022/12/18 05:36:01;;;;;;;12.48;10.00;;;-4.70;99.90;;;;;;5073176;28;20166;-70
2022/12/18 05:38:28;;;;;;;17.40;9.18;;;-4.70;99.80;;;;;;5074017;28;20175;-71
2022/12/18 05:40:54;;;;;;;8.93;8.13;;;-4.70;99.10;;;;;;5074204;28;20635;-70
2022/12/18 05:43:22;;;;;;;17.30;7.90;;;-4.70;98.70;;;;;;5073837;28;20249;-70
2022/12/18 05:45:48;;;;;;;10.88;8.02;;;-4.70;94.70;;;;;;5055229;28;20198;-70
2022/12/18 05:48:15;;;;;;;18.08;9.30;;;-4.70;99.90;;;;;;5073831;28;20190;-70
2022/12/18 05:50:45;;;;;;;15.48;9.77;;;-4.80;95.30;;;;;;5073622;28;20155;-70
2022/12/18 05:53:12;;;;;;;12.95;8.70;;;-4.80;93.80;;;;;;5073946;28;20162;-70
2022/12/18 05:55:41;;;;;;;11.10;8.88;;;-4.90;89.30;;;;;;5072576;28;20190;-70
2022/12/18 05:58:08;;;;;;;15.15;9.70;;;-4.90;91.70;;;;;;5073680;28;20177;-70
2022/12/18 06:00:41;;;;;;;12.55;9.57;;;-4.90;90.50;;;;;;5073573;28;20174;-70
2022/12/18 06:03:33;;;;;;;11.60;9.15;;;-5.00;93.10;;;;;;5073625;28;20190;-70
2022/12/18 06:09:25;;;;;;;12.02;7.38;;;-5.00;87.50;;;;;;5073668;28;20205;-70
2022/12/18 06:11:52;;;;;;;15.60;9.48;;;-5.10;83.90;;;;;;5073427;28;20193;-70
2022/12/18 06:14:34;;;;;;;9.35;8.45;;;-5.10;86.40;;;;;;5072738;28;20666;-74
2022/12/18 06:17:00;;;;;;;10.05;9.00;;;-5.10;84.80;;;;;;5055206;28;20634;-70
2022/12/18 06:19:26;;;;;;;13.07;8.85;;;-5.10;84.00;;;;;;5073591;28;20158;-69
2022/12/18 06:21:52;;;;;;;13.77;8.37;;;-5.10;83.90;;;;;;5073493;28;20256;-70
2022/12/18 06:24:22;;;;;;;13.20;9.07;;;-5.20;83.90;;;;;;5072537;28;20511;-75
2022/12/18 06:26:48;;;;;;;14.35;9.45;;;-5.20;83.90;;;;;;5073368;28;20182;-71
2022/12/18 06:29:14;;;;;;;11.13;9.20;;;-5.20;83.90;;;;;;5073280;28;20193;-72
2022/12/18 06:31:42;;;;;;;8.88;6.80;;;-5.20;83.90;;;;;;5073449;28;20167;-70
2022/12/18 06:34:11;;;;;;;9.60;8.30;;;-5.20;83.80;;;;;;5072939;28;20235;-70
2022/12/18 06:36:37;;;;;;;9.40;7.90;;;-5.20;83.90;;;;;;5072688;28;20168;-70
2022/12/18 06:39:03;;;;;;;14.97;8.37;;;-5.20;83.90;;;;;;5073130;28;20253;-74
2022/12/18 06:41:29;;;;;;;7.80;6.93;;;-5.30;83.80;;;;;;5073305;28;20404;-72
2022/12/18 06:44:30;;;;;;;11.37;8.30;;;-5.30;83.70;;;;;;5076427;28;20435;-69
2022/12/18 06:47:31;;;;;;;9.60;7.55;;;-5.30;83.80;;;;;;5074347;28;20502;-72
2022/12/18 06:49:57;;;;;;;12.70;9.25;;;-5.30;83.80;;;;;;5055322;28;20212;-70
2022/12/18 06:52:23;;;;;;;8.17;7.37;;;-5.40;83.70;;;;;;5058893;28;20179;-71
2022/12/18 06:54:49;;;;;;;21.30;8.98;;;-5.30;83.90;;;;;;5076067;28;20423;-71
2022/12/18 06:57:15;;;;;;;17.77;7.57;;;-5.30;83.80;;;;;;5076976;28;20253;-69
2022/12/18 06:59:44;;;;;;;14.13;8.47;;;-5.40;83.70;;;;;;5077054;28;20446;-69
2022/12/18 07:02:13;;;;;;;21.23;8.82;;;-5.40;83.60;;;;;;5058823;28;20415;-69
2022/12/18 07:04:39;;;;;;;14.57;8.88;;;-5.40;83.20;;;;;;5075626;28;20174;-69
2022/12/18 07:07:06;;;;;;;9.83;7.63;;;-5.40;83.80;;;;;;5076665;28;20550;-70
2022/12/18 07:09:31;;;;;;;10.48;8.82;;;-5.50;83.50;;;;;;5076699;28;20450;-71
2022/12/18 07:12:00;;;;;;;11.73;8.70;;;-5.50;82.40;;;;;;5077006;28;20174;-69
2022/12/18 07:14:26;;;;;;;12.75;9.88;;;-5.50;82.60;;;;;;5075744;28;20427;-71
2022/12/18 07:16:52;;;;;;;10.90;7.65;;;-5.50;82.90;;;;;;5076638;28;20158;-71
2022/12/18 07:19:18;;;;;;;10.70;6.90;;;-5.50;83.60;;;;;;5076457;28;20542;-70
2022/12/18 07:21:44;;;;;;;9.27;7.30;;;-5.50;83.00;;;;;;5076773;28;20404;-69
2022/12/18 07:24:10;;;;;;;9.25;7.63;;;-5.50;81.00;;;;;;5076335;28;20428;-69
2022/12/18 07:26:36;;;;;;;12.90;8.57;;;-5.50;68.60;;;;;;5075849;28;20173;-71
2022/12/18 07:29:02;;;;;;;8.60;6.97;;;-5.50;79.90;;;;;;5076550;28;20190;-70
2022/12/18 07:31:28;;;;;;;9.40;8.60;;;-5.50;83.30;;;;;;5076362;28;20249;-71
2022/12/18 07:37:02;;;;;;;9.40;7.72;;;-5.60;79.30;;;;;;5076381;28;20177;-71
2022/12/18 07:39:28;;;;;;;17.25;8.20;;;-5.60;77.00;;;;;;5058327;28;20178;-69
2022/12/18 07:44:41;;;;;;;7.50;6.70;;;-5.60;64.40;;;;;;5075276;28;21229;-69
2022/12/18 07:47:07;;;;;;;10.27;7.28;;;-5.60;74.00;;;;;;5076157;28;20170;-71
2022/12/18 07:49:32;;;;;;;14.27;8.23;;;-5.60;71.50;;;;;;5057875;28;20209;-70
2022/12/18 07:51:59;;;;;;;14.90;7.40;;;-5.60;82.20;;;;;;5058222;28;20661;-69
2022/12/18 07:54:25;;;;;;;17.05;8.23;;;-5.60;80.80;;;;;;5074832;28;20578;-71
2022/12/18 07:56:51;;;;;;;10.70;6.55;;;-5.50;76.20;;;;;;5058036;28;20172;-71
2022/12/18 07:59:18;;;;;;;8.52;6.60;;;-5.50;83.50;;;;;;5075962;28;20202;-70
2022/12/18 08:01:44;;;;;;;11.48;7.10;;;-5.50;82.60;;;;;;5075836;28;20169;-70
2022/12/18 08:04:11;;;;;;;10.02;7.65;;;-5.50;80.10;;;;;;5075761;28;20186;-69
2022/12/18 08:06:37;;;;;;;11.93;8.40;;;-5.50;77.60;;;;;;5075162;28;20186;-71
2022/12/18 08:09:03;;;;;;;8.85;7.90;;;-5.50;81.00;;;;;;5075605;28;20198;-70
2022/12/18 08:11:29;;;;;;;20.67;10.80;;;-5.50;62.60;;;;;;5075672;28;20174;-69
2022/12/18 08:14:14;;;;;;;;;;;;;;;;;;;;;
2022/12/18 08:16:40;;;;;;;13.30;7.30;;;-5.40;76.10;;;;;;5074588;28;20530;-71
2022/12/18 08:19:20;;;;;;;;;;;;;;;;;;;;;
2022/12/18 08:21:47;;;;;;;9.02;6.82;;;-5.40;83.00;;;;;;5075167;28;20511;-72
2022/12/18 08:24:13;;;;;;;16.13;7.93;;;-5.30;83.80;;;;;;5075239;28;20182;-70
2022/12/18 08:26:39;;;;;;;11.15;8.35;;;-5.30;83.80;;;;;;5074751;28;20249;-69
2022/12/18 08:29:05;;;;;;;11.65;8.68;;;-5.30;83.80;;;;;;5075279;28;20197;-71
2022/12/18 08:31:32;;;;;;;11.88;6.85;;;-5.20;73.40;;;;;;5057324;28;20181;-70
2022/12/18 08:34:24;;;;;;;9.63;7.22;;;-5.20;78.50;;;;;;5075157;28;20193;-69
2022/12/18 08:36:56;;;;;;;7.65;6.85;;;-5.20;83.70;;;;;;5069763;28;20224;-69
2022/12/18 08:39:32;;;;;;;;;;;;;;;;;;;;;
2022/12/18 08:44:43;;;;;;;10.63;7.57;;;-5.10;83.10;;;;;;5074576;28;20189;-71
2022/12/18 08:53:45;;;;;;;11.70;7.25;;;-5.00;79.40;;;;;;5075103;28;20172;-69
2022/12/18 08:56:13;;;;;;;8.82;7.93;;;-5.10;60.70;;;;;;5074204;28;20162;-69
2022/12/18 08:58:39;;;;;;;9.65;7.65;;;-5.20;54.10;;;;;;5074835;28;20174;-69
2022/12/18 09:01:08;;;;;;;8.00;7.28;;;-5.20;57.10;;;;;;5074758;28;20174;-71
2022/12/18 09:03:35;;;;;;;11.25;7.75;;;-5.20;49.80;;;;;;5074654;28;20214;-71
2022/12/18 09:06:01;;;;;;;8.80;8.07;;;-5.10;57.30;;;;;;5072876;28;20273;-70
2022/12/18 09:08:27;;;;;;;21.40;10.27;;;-5.20;56.10;;;;;;5074500;28;20292;-71
2022/12/18 09:10:54;;;;;;;10.57;9.30;;;-5.20;54.60;;;;;;5074495;28;20166;-70
2022/12/18 09:13:20;;;;;;;11.90;9.65;;;-5.20;61.00;;;;;;5074123;28;20257;-69
2022/12/18 09:15:49;;;;;;;11.57;7.95;;;-5.10;60.40;;;;;;5073536;28;20224;-71
2022/12/18 09:18:17;;;;;;;13.13;10.27;;;-5.10;56.00;;;;;;5074069;28;20197;-70
2022/12/18 09:20:43;;;;;;;13.57;8.18;;;-5.10;66.30;;;;;;5074294;28;20166;-69
2022/12/18 09:23:22;;;;;;;19.48;9.68;;;-5.10;63.10;;;;;;5074165;28;20205;-70
2022/12/18 09:25:48;;;;;;;10.00;8.70;;;-5.00;56.60;;;;;;5055456;28;20735;-71
2022/12/18 09:28:17;;;;;;;13.75;9.73;;;-5.00;47.90;;;;;;5073970;28;20189;-69
2022/12/18 09:30:48;;;;;;;14.35;9.30;;;-5.00;56.20;;;;;;5073988;28;20167;-69
2022/12/18 09:33:15;;;;;;;11.15;8.43;;;-4.80;65.20;;;;;;5074325;28;20159;-71
2022/12/18 09:36:00;;;;;;;12.30;10.88;;;-4.80;62.30;;;;;;5073299;28;20325;-71
2022/12/18 09:38:46;;;;;;;;;;;;;;;;;;;;;
2022/12/18 09:41:44;;;;;;;11.38;9.43;;;-4.70;56.30;;;;;;5074071;28;20176;-70
2022/12/18 09:44:34;;;;;;;18.00;9.85;;;-4.70;45.60;;;;;;5073622;28;20657;-71
2022/12/18 09:47:17;;;;;;;13.77;9.65;;;-4.60;47.00;;;;;;5073767;28;20273;-69
2022/12/18 09:49:46;;;;;;;13.75;8.98;;;-4.60;42.60;;;;;;5073761;28;20524;-71
2022/12/18 09:52:19;;;;;;;15.80;9.98;;;-4.60;44.10;;;;;;5073887;28;20173;-69
2022/12/18 09:54:54;;;;;;;13.27;10.20;;;-4.50;28.40;;;;;;5073001;28;20218;-71
2022/12/18 09:57:22;;;;;;;12.57;9.80;;;-4.50;28.90;;;;;;5073659;28;20162;-71
2022/12/18 09:59:58;;;;;;;14.43;10.65;;;-4.40;54.50;;;;;;5073788;28;20177;-71
2022/12/18 10:02:26;;;;;;;13.07;9.20;;;-4.30;54.60;;;;;;5073673;28;20645;-71
2022/12/18 10:05:29;;;;;;;15.98;10.75;;;-4.30;53.10;;;;;;5072826;28;20665;-69
2022/12/18 10:08:35;;;;;;;11.45;9.93;;;-4.30;33.70;;;;;;5073576;28;20162;-69
2022/12/18 10:11:23;;;;;;;13.95;8.38;;;-4.20;49.80;;;;;;5039772;28;20190;-69
2022/12/18 10:13:56;;;;;;;8.90;6.85;;;-4.20;49.90;;;;;;5073397;28;20210;-71
2022/12/18 10:16:31;;;;;;;16.92;9.70;;;-4.10;48.30;;;;;;5072700;28;20183;-70
2022/12/18 10:19:15;;;;;;;14.98;9.70;;;-4.00;24.50;;;;;;5073212;28;20166;-69
2022/12/18 10:22:05;;;;;;;12.43;9.63;;;-3.90;30.60;;;;;;5073371;28;20170;-71
2022/12/18 10:24:49;;;;;;;10.23;7.78;;;-3.90;38.70;;;;;;5072527;28;20615;-70
2022/12/18 10:27:18;;;;;;;17.20;11.25;;;-3.80;37.70;;;;;;5073507;28;20174;-69
2022/12/18 10:29:46;;;;;;;17.05;10.00;;;-3.70;57.00;;;;;;5073185;28;20202;-71
2022/12/18 10:32:18;;;;;;;12.05;9.45;;;-3.60;51.60;;;;;;5055640;28;20170;-69
2022/12/18 10:34:51;;;;;;;15.75;10.25;;;-3.50;49.50;;;;;;5072357;28;20257;-71
2022/12/18 10:37:20;;;;;;;10.68;9.57;;;-3.30;58.10;;;;;;5073360;28;20296;-69
2022/12/18 10:40:05;;;;;;;14.00;9.38;;;-3.20;57.50;;;;;;5073415;28;20174;-69
2022/12/18 10:42:31;;;;;;;15.38;9.23;;;-3.10;56.70;;;;;;5072407;28;20174;-71
2022/12/18 10:45:11;;;;;;;16.00;10.97;;;-3.00;42.30;;;;;;5072067;28;20194;-69
2022/12/18 10:47:43;;;;;;;17.83;9.43;;;-3.00;29.50;;;;;;5072926;28;20253;-69
2022/12/18 10:50:24;;;;;;;13.20;10.57;;;-2.90;27.80;;;;;;5073074;28;20277;-71
2022/12/18 10:53:02;;;;;;;13.98;10.38;;;-2.80;44.30;;;;;;5072805;28;20526;-70
2022/12/18 10:55:39;;;;;;;11.00;8.70;;;-2.80;37.20;;;;;;5054107;28;20562;-69
2022/12/18 10:58:33;;;;;;;14.13;10.60;;;-2.70;32.70;;;;;;5072836;28;20159;-71
2022/12/18 11:01:16;;;;;;;15.98;9.48;;;-2.70;19.50;;;;;;5072902;28;20566;-70
2022/12/18 11:03:58;;;;;;;14.55;9.35;;;-2.70;29.00;;;;;;5072673;28;20296;-71
2022/12/18 11:06:25;;;;;;;13.27;8.55;;;-2.80;20.90;;;;;;5071968;28;20712;-70
2022/12/18 11:09:03;;;;;;;11.35;10.15;;;-2.70;28.90;;;;;;5072481;28;20198;-72
2022/12/18 11:11:31;;;;;;;15.20;11.45;;;-2.70;23.90;;;;;;5072852;28;20174;-71
2022/12/18 11:14:02;;;;;;;15.38;10.18;;;-2.70;20.90;;;;;;5072663;28;20557;-72
2022/12/18 11:16:30;;;;;;;22.33;11.32;;;-2.60;14.80;;;;;;5072060;28;20162;-73
2022/12/18 11:19:27;;;;;;;9.30;7.88;;;-2.50;23.90;;;;;;5072463;28;20597;-72
2022/12/18 11:21:53;;;;;;;17.05;11.18;;;-2.40;14.90;;;;;;5072812;28;20173;-69
2022/12/18 11:24:22;;;;;;;14.27;10.40;;;-2.40;17.40;;;;;;5071597;28;20206;-77
2022/12/18 11:26:48;;;;;;;12.18;9.50;;;-2.40;14.70;;;;;;5072727;28;20665;-72
2022/12/18 11:29:23;;;;;;;21.45;11.18;;;-2.40;12.50;;;;;;5074137;28;20566;-73
2022/12/18 11:31:49;;;;;;;19.58;9.60;;;-2.50;10.10;;;;;;5076612;28;20166;-70
2022/12/18 11:34:29;;;;;;;13.70;9.90;;;-2.40;13.80;;;;;;5075885;28;20194;-69
2022/12/18 11:36:55;;;;;;;17.55;10.38;;;-2.40;17.70;;;;;;5076592;28;20266;-70
2022/12/18 11:39:42;;;;;;;12.85;9.35;;;-2.50;12.70;;;;;;5074984;28;20247;-71
2022/12/18 11:42:22;;;;;;;13.50;10.25;;;-2.60;1.00;;;;;;5076361;28;20172;-72
2022/12/18 11:44:59;;;;;;;13.93;10.70;;;-2.50;1.00;;;;;;5075062;28;20561;-74
2022/12/18 11:47:30;;;;;;;12.25;9.50;;;-2.50;13.20;;;;;;5075786;28;20170;-75
2022/12/18 11:50:00;;;;;;;15.90;10.60;;;-2.40;14.60;;;;;;5058130;28;20247;-74
2022/12/18 11:52:46;;;;;;;12.25;10.38;;;-2.30;18.90;;;;;;5075880;28;20155;-71
2022/12/18 11:55:34;;;;;;;22.08;12.15;;;-2.20;21.80;;;;;;5074861;28;20261;-72
2022/12/18 11:58:14;;;;;;;18.25;10.32;;;-2.10;18.60;;;;;;5068128;28;20260;-75
2022/12/18 12:00:55;;;;;;;16.98;11.00;;;-2.00;19.20;;;;;;5075918;28;20174;-71
2022/12/18 12:04:01;;;;;;;19.48;10.73;;;-2.00;17.50;;;;;;5075732;28;20168;-73
2022/12/18 12:06:48;;;;;;;18.65;10.98;;;-2.00;7.70;;;;;;5074437;28;20197;-75
2022/12/18 12:09:41;;;;;;;13.98;9.18;;;-2.00;14.40;;;;;;5075204;28;20209;-76
2022/12/18 12:12:18;;;;;;;15.85;10.07;;;-2.00;10.70;;;;;;5075678;28;20200;-76
2022/12/18 12:15:02;;;;;;;17.38;10.23;;;-2.00;2.10;;;;;;5074265;28;20217;-75
2022/12/18 12:17:52;;;;;;;13.48;10.15;;;-2.00;1.00;;;;;;5075734;28;20526;-75
2022/12/18 12:20:31;;;;;;;16.10;9.32;;;-2.00;2.90;;;;;;5055565;28;20178;-72
2022/12/18 12:23:26;;;;;;;18.70;10.73;;;-2.00;1.00;;;;;;5058199;28;20193;-69
2022/12/18 12:26:10;;;;;;;18.92;10.80;;;-2.00;1.00;;;;;;5056987;28;20256;-72
2022/12/18 12:29:14;;;;;;;16.42;10.55;;;-1.90;1.00;;;;;;5074974;28;20557;-69
2022/12/18 12:32:07;;;;;;;16.55;11.15;;;-2.00;1.00;;;;;;5053465;28;20185;-72
2022/12/18 12:34:54;;;;;;;19.00;11.00;;;-2.00;1.00;;;;;;5074207;28;20198;-69
2022/12/18 12:37:36;;;;;;;15.52;11.02;;;-2.00;1.00;;;;;;5057484;28;20201;-72
2022/12/18 12:40:03;;;;;;;15.93;10.25;;;-2.10;1.00;;;;;;5073647;28;20178;-73
2022/12/18 12:45:36;;;;;;;14.93;9.98;;;-2.10;1.00;;;;;;5073963;28;20310;-69
2022/12/18 12:48:05;;;;;;;14.05;9.57;;;-2.10;1.00;;;;;;5074947;28;20627;-70
2022/12/18 12:50:34;;;;;;;17.17;10.40;;;-2.00;1.00;;;;;;5075265;28;20680;-72
2022/12/18 12:53:05;;;;;;;11.52;10.32;;;-2.10;1.00;;;;;;5056978;28;20177;-72
2022/12/18 12:55:32;;;;;;;16.15;9.15;;;-2.00;1.00;;;;;;5073721;28;20585;-71
2022/12/18 12:58:16;;;;;;;12.35;9.75;;;-2.00;1.00;;;;;;5074597;28;20197;-72
2022/12/18 13:01:10;;;;;;;16.90;10.80;;;-2.00;1.00;;;;;;5074734;28;20170;-73
2022/12/18 13:03:41;;;;;;;14.48;10.90;;;-2.10;1.00;;;;;;5066823;28;20214;-70
2022/12/18 13:06:25;;;;;;;15.68;10.13;;;-2.00;1.00;;;;;;5055711;28;20189;-72
2022/12/18 13:08:57;;;;;;;11.68;10.25;;;-2.10;1.00;;;;;;5074115;28;20226;-69
2022/12/18 13:14:40;;;;;;;14.98;9.05;;;-2.00;1.00;;;;;;5073107;28;20209;-77
2022/12/18 13:17:21;;;;;;;15.57;8.82;;;-1.90;1.00;;;;;;5074525;28;20167;-72
2022/12/18 13:20:12;;;;;;;11.50;8.85;;;-1.90;3.90;;;;;;5052556;28;20325;-71
2022/12/18 13:22:37;;;;;;;15.32;9.30;;;-1.90;2.40;;;;;;5054340;28;20167;-72
2022/12/18 13:25:27;;;;;;;14.63;10.17;;;-1.90;1.00;;;;;;5056988;28;20654;-72
2022/12/18 13:28:05;;;;;;;11.70;9.27;;;-2.00;1.00;;;;;;5036550;28;20228;-70
2022/12/18 13:30:33;;;;;;;16.73;10.70;;;-2.10;1.00;;;;;;5043481;28;20218;-71
2022/12/18 13:33:15;;;;;;;17.45;11.20;;;-2.10;1.00;;;;;;5056471;28;20170;-70
2022/12/18 13:35:52;;;;;;;15.63;10.52;;;-2.10;1.00;;;;;;5072757;28;20194;-72